sensor_id;sensor_type;location;lat;lon;timestamp;temperature;humidity
32640;DHT22;19049;52.524;11.468;2023-07-08T00:00:23;14.10;68.30
32640;DHT22;19049;52.524;11.468;2023-07-08T00:02:50;14.30;69.50
32640;DHT22;19049;52.524;11.468;2023-07-08T00:05:17;14.00;68.60
32640;DHT22;19049;52.524;11.468;2023-07-08T00:07:44;13.80;85.60
32640;DHT22;19049;52.524;11.468;2023-07-08T00:17:27;14.40;87.20
32640;DHT22;19049;52.524;11.468;2023-07-08T00:22:20;14.30;87.60
32640;DHT22;19049;52.524;11.468;2023-07-08T00:27:12;14.30;88.80
32640;DHT22;19049;52.524;11.468;2023-07-08T00:29:41;14.30;76.10
32640;DHT22;19049;52.524;11.468;2023-07-08T00:32:11;14.00;71.70
32640;DHT22;19049;52.524;11.468;2023-07-08T00:34:38;14.10;90.10
32640;DHT22;19049;52.524;11.468;2023-07-08T00:37:03;13.60;88.30
32640;DHT22;19049;52.524;11.468;2023-07-08T00:39:31;14.20;88.60
32640;DHT22;19049;52.524;11.468;2023-07-08T00:41:58;13.70;71.80
32640;DHT22;19049;52.524;11.468;2023-07-08T00:47:02;13.40;80.70
32640;DHT22;19049;52.524;11.468;2023-07-08T00:49:50;13.20;88.40
32640;DHT22;19049;52.524;11.468;2023-07-08T00:52:25;13.40;88.80
32640;DHT22;19049;52.524;11.468;2023-07-08T00:54:59;13.50;72.50
32640;DHT22;19049;52.524;11.468;2023-07-08T00:57:33;13.10;90.00
32640;DHT22;19049;52.524;11.468;2023-07-08T01:00:13;13.00;90.10
32640;DHT22;19049;52.524;11.468;2023-07-08T01:02:53;13.00;90.40
32640;DHT22;19049;52.524;11.468;2023-07-08T01:05:24;13.10;90.80
32640;DHT22;19049;52.524;11.468;2023-07-08T01:07:55;12.90;91.00
32640;DHT22;19049;52.524;11.468;2023-07-08T01:10:49;13.30;74.30
32640;DHT22;19049;52.524;11.468;2023-07-08T01:13:17;13.20;91.20
32640;DHT22;19049;52.524;11.468;2023-07-08T01:15:45;13.10;91.30
32640;DHT22;19049;52.524;11.468;2023-07-08T01:18:14;13.20;83.80
32640;DHT22;19049;52.524;11.468;2023-07-08T01:20:42;13.40;90.60
32640;DHT22;19049;52.524;11.468;2023-07-08T01:23:10;13.80;84.90
32640;DHT22;19049;52.524;11.468;2023-07-08T01:25:36;13.20;91.60
32640;DHT22;19049;52.524;11.468;2023-07-08T01:28:03;13.30;91.50
32640;DHT22;19049;52.524;11.468;2023-07-08T01:30:29;13.20;75.50
32640;DHT22;19049;52.524;11.468;2023-07-08T01:32:59;13.40;94.10
32640;DHT22;19049;52.524;11.468;2023-07-08T01:35:25;13.10;92.10
32640;DHT22;19049;52.524;11.468;2023-07-08T01:37:57;13.00;76.00
32640;DHT22;19049;52.524;11.468;2023-07-08T01:40:33;13.00;76.10
32640;DHT22;19049;52.524;11.468;2023-07-08T01:43:00;12.30;92.40
32640;DHT22;19049;52.524;11.468;2023-07-08T01:45:29;13.90;92.10
32640;DHT22;19049;52.524;11.468;2023-07-08T01:47:59;12.60;81.10
32640;DHT22;19049;52.524;11.468;2023-07-08T01:50:27;12.90;77.10
32640;DHT22;19049;52.524;11.468;2023-07-08T01:52:57;13.30;91.70
32640;DHT22;19049;52.524;11.468;2023-07-08T01:55:24;13.30;91.90
32640;DHT22;19049;52.524;11.468;2023-07-08T01:57:53;12.80;77.70
32640;DHT22;19049;52.524;11.468;2023-07-08T02:00:20;12.80;77.90
32640;DHT22;19049;52.524;11.468;2023-07-08T02:05:12;13.40;80.50
32640;DHT22;19049;52.524;11.468;2023-07-08T02:10:04;12.80;92.60
32640;DHT22;19049;52.524;11.468;2023-07-08T02:14:56;12.70;92.40
32640;DHT22;19049;52.524;11.468;2023-07-08T02:17:21;12.20;92.30
32640;DHT22;19049;52.524;11.468;2023-07-08T02:19:47;13.10;92.80
32640;DHT22;19049;52.524;11.468;2023-07-08T02:22:13;12.50;92.70
32640;DHT22;19049;52.524;11.468;2023-07-08T02:27:04;12.10;92.90
32640;DHT22;19049;52.524;11.468;2023-07-08T02:29:30;12.50;92.80
32640;DHT22;19049;52.524;11.468;2023-07-08T02:31:57;11.30;92.50
32640;DHT22;19049;52.524;11.468;2023-07-08T02:34:23;12.40;93.10
32640;DHT22;19049;52.524;11.468;2023-07-08T02:36:48;12.30;93.00
32640;DHT22;19049;52.524;11.468;2023-07-08T02:39:14;12.90;84.70
32640;DHT22;19049;52.524;11.468;2023-07-08T02:44:05;12.40;93.00
32640;DHT22;19049;52.524;11.468;2023-07-08T02:53:50;11.90;90.50
32640;DHT22;19049;52.524;11.468;2023-07-08T02:56:15;12.70;93.40
32640;DHT22;19049;52.524;11.468;2023-07-08T03:01:08;11.90;93.40
32640;DHT22;19049;52.524;11.468;2023-07-08T03:06:04;12.00;93.50
32640;DHT22;19049;52.524;11.468;2023-07-08T03:11:01;12.40;93.80
32640;DHT22;19049;52.524;11.468;2023-07-08T03:13:27;12.10;81.90
32640;DHT22;19049;52.524;11.468;2023-07-08T03:15:54;13.10;93.00
32640;DHT22;19049;52.524;11.468;2023-07-08T03:18:23;12.60;94.20
32640;DHT22;19049;52.524;11.468;2023-07-08T03:23:15;12.90;89.00
32640;DHT22;19049;52.524;11.468;2023-07-08T03:25:42;12.50;92.20
32640;DHT22;19049;52.524;11.468;2023-07-08T03:28:08;13.00;90.10
32640;DHT22;19049;52.524;11.468;2023-07-08T03:30:44;11.90;85.50
32640;DHT22;19049;52.524;11.468;2023-07-08T03:33:11;11.50;82.50
32640;DHT22;19049;52.524;11.468;2023-07-08T03:35:37;11.90;94.20
32640;DHT22;19049;52.524;11.468;2023-07-08T03:38:06;11.90;94.20
32640;DHT22;19049;52.524;11.468;2023-07-08T03:42:58;12.70;91.20
32640;DHT22;19049;52.524;11.468;2023-07-08T03:45:25;12.20;84.10
32640;DHT22;19049;52.524;11.468;2023-07-08T03:47:51;11.70;94.60
32640;DHT22;19049;52.524;11.468;2023-07-08T03:50:22;11.90;90.70
32640;DHT22;19049;52.524;11.468;2023-07-08T03:52:49;12.20;92.60
32640;DHT22;19049;52.524;11.468;2023-07-08T03:55:15;12.60;87.60
32640;DHT22;19049;52.524;11.468;2023-07-08T03:57:41;12.30;95.00
32640;DHT22;19049;52.524;11.468;2023-07-08T04:00:07;12.20;94.90
32640;DHT22;19049;52.524;11.468;2023-07-08T04:02:38;12.00;93.10
32640;DHT22;19049;52.524;11.468;2023-07-08T04:05:04;12.20;95.10
32640;DHT22;19049;52.524;11.468;2023-07-08T04:14:47;13.10;95.40
32640;DHT22;19049;52.524;11.468;2023-07-08T04:17:14;13.00;95.70
32640;DHT22;19049;52.524;11.468;2023-07-08T04:24:35;13.10;96.60
32640;DHT22;19049;52.524;11.468;2023-07-08T04:29:27;14.30;92.70
32640;DHT22;19049;52.524;11.468;2023-07-08T04:34:18;15.10;93.20
32640;DHT22;19049;52.524;11.468;2023-07-08T04:36:45;15.40;97.30
32640;DHT22;19049;52.524;11.468;2023-07-08T04:39:11;15.50;98.10
32640;DHT22;19049;52.524;11.468;2023-07-08T04:41:38;15.90;90.00
32640;DHT22;19049;52.524;11.468;2023-07-08T04:44:09;16.40;89.70
32640;DHT22;19049;52.524;11.468;2023-07-08T04:46:48;17.00;95.90
32640;DHT22;19049;52.524;11.468;2023-07-08T04:49:17;17.40;95.80
32640;DHT22;19049;52.524;11.468;2023-07-08T04:51:43;17.80;87.90
32640;DHT22;19049;52.524;11.468;2023-07-08T04:54:10;18.20;87.30
32640;DHT22;19049;52.524;11.468;2023-07-08T04:56:46;18.60;86.70
32640;DHT22;19049;52.524;11.468;2023-07-08T04:59:14;19.10;93.70
32640;DHT22;19049;52.524;11.468;2023-07-08T05:01:41;19.40;85.10
32640;DHT22;19049;52.524;11.468;2023-07-08T05:04:13;19.80;84.30
32640;DHT22;19049;52.524;11.468;2023-07-08T05:09:06;20.40;82.80
32640;DHT22;19049;52.524;11.468;2023-07-08T05:11:33;20.70;82.80
32640;DHT22;19049;52.524;11.468;2023-07-08T05:13:59;21.10;82.50
32640;DHT22;19049;52.524;11.468;2023-07-08T05:16:25;22.30;91.20
32640;DHT22;19049;52.524;11.468;2023-07-08T05:18:51;21.30;90.00
32640;DHT22;19049;52.524;11.468;2023-07-08T05:21:18;23.30;90.70
32640;DHT22;19049;52.524;11.468;2023-07-08T05:23:45;22.50;79.60
32640;DHT22;19049;52.524;11.468;2023-07-08T05:26:10;23.60;84.30
32640;DHT22;19049;52.524;11.468;2023-07-08T05:28:36;22.80;89.00
32640;DHT22;19049;52.524;11.468;2023-07-08T05:31:02;23.40;77.20
32640;DHT22;19049;52.524;11.468;2023-07-08T05:33:30;23.60;76.90
32640;DHT22;19049;52.524;11.468;2023-07-08T05:35:55;23.90;76.30
32640;DHT22;19049;52.524;11.468;2023-07-08T05:38:22;24.10;75.80
32640;DHT22;19049;52.524;11.468;2023-07-08T05:40:53;23.90;86.00
32640;DHT22;19049;52.524;11.468;2023-07-08T05:43:19;24.60;74.20
32640;DHT22;19049;52.524;11.468;2023-07-08T05:45:45;25.10;85.20
32640;DHT22;19049;52.524;11.468;2023-07-08T05:48:11;25.00;84.90
32640;DHT22;19049;52.524;11.468;2023-07-08T05:50:37;25.30;74.00
32640;DHT22;19049;52.524;11.468;2023-07-08T05:53:04;25.50;73.00
32640;DHT22;19049;52.524;11.468;2023-07-08T05:55:31;26.60;76.50
32640;DHT22;19049;52.524;11.468;2023-07-08T05:57:57;26.20;83.30
32640;DHT22;19049;52.524;11.468;2023-07-08T06:00:22;26.60;81.90
32640;DHT22;19049;52.524;11.468;2023-07-08T06:02:48;26.80;82.10
32640;DHT22;19049;52.524;11.468;2023-07-08T06:07:40;26.70;76.30
32640;DHT22;19049;52.524;11.468;2023-07-08T06:14:57;28.10;74.80
32640;DHT22;19049;52.524;11.468;2023-07-08T06:17:23;27.50;64.20
32640;DHT22;19049;52.524;11.468;2023-07-08T06:19:49;27.60;76.90
32640;DHT22;19049;52.524;11.468;2023-07-08T06:22:14;27.60;62.40
32640;DHT22;19049;52.524;11.468;2023-07-08T06:24:40;27.70;61.80
32640;DHT22;19049;52.524;11.468;2023-07-08T06:27:06;27.80;59.80
32640;DHT22;19049;52.524;11.468;2023-07-08T06:29:33;27.80;59.10
32640;DHT22;19049;52.524;11.468;2023-07-08T06:31:59;27.80;58.70
32640;DHT22;19049;52.524;11.468;2023-07-08T06:34:25;27.80;58.70
32640;DHT22;19049;52.524;11.468;2023-07-08T06:36:51;27.80;58.30
32640;DHT22;19049;52.524;11.468;2023-07-08T06:39:17;27.80;58.00
32640;DHT22;19049;52.524;11.468;2023-07-08T06:41:43;27.80;58.20
32640;DHT22;19049;52.524;11.468;2023-07-08T06:44:09;27.90;57.20
32640;DHT22;19049;52.524;11.468;2023-07-08T06:46:34;27.90;57.60
32640;DHT22;19049;52.524;11.468;2023-07-08T06:49:00;28.00;58.20
32640;DHT22;19049;52.524;11.468;2023-07-08T06:51:26;28.50;67.00
32640;DHT22;19049;52.524;11.468;2023-07-08T06:53:51;28.20;56.70
32640;DHT22;19049;52.524;11.468;2023-07-08T06:56:17;28.40;56.60
32640;DHT22;19049;52.524;11.468;2023-07-08T06:58:43;28.50;55.90
32640;DHT22;19049;52.524;11.468;2023-07-08T07:01:09;28.60;56.00
32640;DHT22;19049;52.524;11.468;2023-07-08T07:03:34;28.80;55.90
32640;DHT22;19049;52.524;11.468;2023-07-08T07:06:00;29.70;64.90
32640;DHT22;19049;52.524;11.468;2023-07-08T07:08:25;29.10;63.20
32640;DHT22;19049;52.524;11.468;2023-07-08T07:20:37;30.00;52.60
32640;DHT22;19049;52.524;11.468;2023-07-08T07:30:21;31.30;55.30
32640;DHT22;19049;52.524;11.468;2023-07-08T07:35:13;31.20;60.50
32640;DHT22;19049;52.524;11.468;2023-07-08T07:37:41;32.00;59.00
32640;DHT22;19049;52.524;11.468;2023-07-08T07:40:09;31.80;57.90
32640;DHT22;19049;52.524;11.468;2023-07-08T07:42:40;31.00;48.70
32640;DHT22;19049;52.524;11.468;2023-07-08T07:47:32;31.30;56.80
32640;DHT22;19049;52.524;11.468;2023-07-08T07:52:24;32.10;51.50
32640;DHT22;19049;52.524;11.468;2023-07-08T07:54:54;31.60;54.20
32640;DHT22;19049;52.524;11.468;2023-07-08T07:57:21;31.80;55.60
32640;DHT22;19049;52.524;11.468;2023-07-08T08:02:14;32.70;47.70
32640;DHT22;19049;52.524;11.468;2023-07-08T08:07:06;33.10;53.80
32640;DHT22;19049;52.524;11.468;2023-07-08T08:09:32;32.60;51.00
32640;DHT22;19049;52.524;11.468;2023-07-08T08:11:57;34.20;52.70
32640;DHT22;19049;52.524;11.468;2023-07-08T08:14:23;32.90;52.10
32640;DHT22;19049;52.524;11.468;2023-07-08T08:16:48;33.50;52.80
32640;DHT22;19049;52.524;11.468;2023-07-08T08:19:14;33.80;46.70
32640;DHT22;19049;52.524;11.468;2023-07-08T08:21:40;34.30;51.50
32640;DHT22;19049;52.524;11.468;2023-07-08T08:24:05;34.70;50.50
32640;DHT22;19049;52.524;11.468;2023-07-08T08:26:31;34.80;50.60
32640;DHT22;19049;52.524;11.468;2023-07-08T08:28:57;33.70;50.80
32640;DHT22;19049;52.524;11.468;2023-07-08T08:31:23;33.90;52.30
32640;DHT22;19049;52.524;11.468;2023-07-08T08:33:48;34.40;44.70
32640;DHT22;19049;52.524;11.468;2023-07-08T08:36:16;34.50;44.00
32640;DHT22;19049;52.524;11.468;2023-07-08T08:38:41;34.60;43.30
32640;DHT22;19049;52.524;11.468;2023-07-08T08:41:15;34.60;43.80
32640;DHT22;19049;52.524;11.468;2023-07-08T08:43:41;34.70;43.20
32640;DHT22;19049;52.524;11.468;2023-07-08T08:46:23;34.80;43.40
32640;DHT22;19049;52.524;11.468;2023-07-08T08:51:44;34.90;42.20
32640;DHT22;19049;52.524;11.468;2023-07-08T08:54:10;34.90;42.30
32640;DHT22;19049;52.524;11.468;2023-07-08T09:01:40;34.90;42.50
32640;DHT22;19049;52.524;11.468;2023-07-08T09:04:11;34.90;42.30
32640;DHT22;19049;52.524;11.468;2023-07-08T09:06:39;35.00;41.20
32640;DHT22;19049;52.524;11.468;2023-07-08T09:09:28;35.10;41.90
32640;DHT22;19049;52.524;11.468;2023-07-08T09:12:14;35.20;40.30
32640;DHT22;19049;52.524;11.468;2023-07-08T09:14:43;35.20;40.90
32640;DHT22;19049;52.524;11.468;2023-07-08T09:17:20;35.20;40.70
32640;DHT22;19049;52.524;11.468;2023-07-08T09:19:49;35.20;41.00
32640;DHT22;19049;52.524;11.468;2023-07-08T09:22:25;35.30;40.70
32640;DHT22;19049;52.524;11.468;2023-07-08T09:27:21;35.30;39.40
32640;DHT22;19049;52.524;11.468;2023-07-08T09:29:46;35.30;39.20
32640;DHT22;19049;52.524;11.468;2023-07-08T09:32:14;35.30;38.70
32640;DHT22;19049;52.524;11.468;2023-07-08T09:34:45;35.30;38.80
32640;DHT22;19049;52.524;11.468;2023-07-08T09:39:48;35.40;38.80
32640;DHT22;19049;52.524;11.468;2023-07-08T09:42:14;35.40;38.00
32640;DHT22;19049;52.524;11.468;2023-07-08T09:44:41;35.50;37.50
32640;DHT22;19049;52.524;11.468;2023-07-08T09:47:24;35.40;36.90
32640;DHT22;19049;52.524;11.468;2023-07-08T09:49:52;35.40;36.10
32640;DHT22;19049;52.524;11.468;2023-07-08T09:52:18;35.30;36.70
32640;DHT22;19049;52.524;11.468;2023-07-08T09:54:45;35.20;37.70
32640;DHT22;19049;52.524;11.468;2023-07-08T09:57:24;35.30;37.00
32640;DHT22;19049;52.524;11.468;2023-07-08T10:00:05;35.30;36.60
32640;DHT22;19049;52.524;11.468;2023-07-08T10:02:39;35.40;36.50
32640;DHT22;19049;52.524;11.468;2023-07-08T10:07:37;35.40;34.30
32640;DHT22;19049;52.524;11.468;2023-07-08T10:10:07;35.40;34.40
32640;DHT22;19049;52.524;11.468;2023-07-08T10:12:37;35.40;34.40
32640;DHT22;19049;52.524;11.468;2023-07-08T10:15:17;35.40;34.30
32640;DHT22;19049;52.524;11.468;2023-07-08T10:17:45;35.40;34.30
32640;DHT22;19049;52.524;11.468;2023-07-08T10:20:12;35.30;34.80
32640;DHT22;19049;52.524;11.468;2023-07-08T10:22:52;35.30;35.10
32640;DHT22;19049;52.524;11.468;2023-07-08T10:25:39;35.30;34.90
32640;DHT22;19049;52.524;11.468;2023-07-08T10:28:21;35.40;34.70
32640;DHT22;19049;52.524;11.468;2023-07-08T10:34:06;35.50;32.80
32640;DHT22;19049;52.524;11.468;2023-07-08T10:37:03;35.60;34.60
32640;DHT22;19049;52.524;11.468;2023-07-08T10:47:39;35.70;32.70
32640;DHT22;19049;52.524;11.468;2023-07-08T10:50:40;35.70;33.10
32640;DHT22;19049;52.524;11.468;2023-07-08T10:55:59;35.70;31.70
32640;DHT22;19049;52.524;11.468;2023-07-08T11:02:15;35.70;32.60
32640;DHT22;19049;52.524;11.468;2023-07-08T11:09:53;35.80;32.30
32640;DHT22;19049;52.524;11.468;2023-07-08T11:12:24;35.90;32.10
32640;DHT22;19049;52.524;11.468;2023-07-08T11:15:17;36.00;32.30
32640;DHT22;19049;52.524;11.468;2023-07-08T11:17:53;36.00;31.30
32640;DHT22;19049;52.524;11.468;2023-07-08T11:20:54;36.00;32.30
32640;DHT22;19049;52.524;11.468;2023-07-08T11:23:33;36.00;32.20
32640;DHT22;19049;52.524;11.468;2023-07-08T11:26:36;36.00;31.90
32640;DHT22;19049;52.524;11.468;2023-07-08T11:29:15;36.10;31.80
32640;DHT22;19049;52.524;11.468;2023-07-08T11:31:43;36.10;32.00
32640;DHT22;19049;52.524;11.468;2023-07-08T11:34:11;36.10;31.50
32640;DHT22;19049;52.524;11.468;2023-07-08T11:36:38;36.20;31.80
32640;DHT22;19049;52.524;11.468;2023-07-08T11:39:30;36.20;32.40
32640;DHT22;19049;52.524;11.468;2023-07-08T11:44:56;36.40;31.80
32640;DHT22;19049;52.524;11.468;2023-07-08T11:47:39;36.50;31.50
32640;DHT22;19049;52.524;11.468;2023-07-08T11:50:28;36.50;31.10
32640;DHT22;19049;52.524;11.468;2023-07-08T11:53:07;36.50;29.80
32640;DHT22;19049;52.524;11.468;2023-07-08T11:55:43;36.50;29.60
32640;DHT22;19049;52.524;11.468;2023-07-08T12:01:39;36.50;30.10
32640;DHT22;19049;52.524;11.468;2023-07-08T12:03:47;36.50;31.10
32640;DHT22;19049;52.524;11.468;2023-07-08T12:08:55;36.60;30.00
32640;DHT22;19049;52.524;11.468;2023-07-08T12:11:32;36.70;30.00
32640;DHT22;19049;52.524;11.468;2023-07-08T12:14:03;36.80;30.00
32640;DHT22;19049;52.524;11.468;2023-07-08T12:16:31;37.00;29.60
32640;DHT22;19049;52.524;11.468;2023-07-08T12:18:59;37.10;29.60
32640;DHT22;19049;52.524;11.468;2023-07-08T12:21:27;37.30;29.60
32640;DHT22;19049;52.524;11.468;2023-07-08T12:23:53;37.40;28.90
32640;DHT22;19049;52.524;11.468;2023-07-08T12:26:19;37.50;28.90
32640;DHT22;19049;52.524;11.468;2023-07-08T12:31:19;37.40;33.40
32640;DHT22;19049;52.524;11.468;2023-07-08T12:33:45;37.60;32.50
32640;DHT22;19049;52.524;11.468;2023-07-08T12:36:16;37.40;33.20
32640;DHT22;19049;52.524;11.468;2023-07-08T12:38:44;39.20;32.80
32640;DHT22;19049;52.524;11.468;2023-07-08T12:41:20;38.10;32.30
32640;DHT22;19049;52.524;11.468;2023-07-08T12:43:47;37.80;32.40
32640;DHT22;19049;52.524;11.468;2023-07-08T12:46:15;38.40;33.20
32640;DHT22;19049;52.524;11.468;2023-07-08T12:48:42;39.70;33.80
32640;DHT22;19049;52.524;11.468;2023-07-08T12:51:14;39.00;30.40
32640;DHT22;19049;52.524;11.468;2023-07-08T12:53:41;39.20;31.90
32640;DHT22;19049;52.524;11.468;2023-07-08T12:56:07;39.60;31.40
32640;DHT22;19049;52.524;11.468;2023-07-08T12:58:37;38.60;31.00
32640;DHT22;19049;52.524;11.468;2023-07-08T13:01:06;39.00;27.60
32640;DHT22;19049;52.524;11.468;2023-07-08T13:03:35;39.30;27.60
32640;DHT22;19049;52.524;11.468;2023-07-08T13:06:02;39.90;33.20
32640;DHT22;19049;52.524;11.468;2023-07-08T13:08:36;39.50;27.00
32640;DHT22;19049;52.524;11.468;2023-07-08T13:11:03;39.60;26.80
32640;DHT22;19049;52.524;11.468;2023-07-08T13:13:39;39.70;27.10
32640;DHT22;19049;52.524;11.468;2023-07-08T13:16:05;39.70;26.70
32640;DHT22;19049;52.524;11.468;2023-07-08T13:18:37;39.70;27.00
32640;DHT22;19049;52.524;11.468;2023-07-08T13:21:06;39.80;26.80
32640;DHT22;19049;52.524;11.468;2023-07-08T13:23:32;39.80;27.90
32640;DHT22;19049;52.524;11.468;2023-07-08T13:25:59;39.80;27.10
32640;DHT22;19049;52.524;11.468;2023-07-08T13:28:28;39.80;26.60
32640;DHT22;19049;52.524;11.468;2023-07-08T13:31:00;39.70;26.10
32640;DHT22;19049;52.524;11.468;2023-07-08T13:33:33;39.70;26.20
32640;DHT22;19049;52.524;11.468;2023-07-08T13:36:02;39.60;26.60
32640;DHT22;19049;52.524;11.468;2023-07-08T13:38:33;39.50;26.90
32640;DHT22;19049;52.524;11.468;2023-07-08T13:41:02;39.50;26.80
32640;DHT22;19049;52.524;11.468;2023-07-08T13:43:31;39.40;26.40
32640;DHT22;19049;52.524;11.468;2023-07-08T13:45:57;39.10;26.50
32640;DHT22;19049;52.524;11.468;2023-07-08T13:53:48;38.10;27.00
32640;DHT22;19049;52.524;11.468;2023-07-08T13:56:29;37.80;26.90
32640;DHT22;19049;52.524;11.468;2023-07-08T13:59:04;37.60;27.20
32640;DHT22;19049;52.524;11.468;2023-07-08T14:01:33;37.40;33.20
32640;DHT22;19049;52.524;11.468;2023-07-08T14:03:59;37.60;35.90
32640;DHT22;19049;52.524;11.468;2023-07-08T14:06:36;37.50;27.30
32640;DHT22;19049;52.524;11.468;2023-07-08T14:09:15;37.00;34.00
32640;DHT22;19049;52.524;11.468;2023-07-08T14:11:42;37.30;27.10
32640;DHT22;19049;52.524;11.468;2023-07-08T14:14:09;37.40;27.90
32640;DHT22;19049;52.524;11.468;2023-07-08T14:16:37;38.10;33.60
32640;DHT22;19049;52.524;11.468;2023-07-08T14:19:05;38.00;27.50
32640;DHT22;19049;52.524;11.468;2023-07-08T14:21:33;38.40;26.70
32640;DHT22;19049;52.524;11.468;2023-07-08T14:24:00;38.60;27.10
32640;DHT22;19049;52.524;11.468;2023-07-08T14:26:28;38.70;27.20
32640;DHT22;19049;52.524;11.468;2023-07-08T14:28:53;38.70;26.80
32640;DHT22;19049;52.524;11.468;2023-07-08T14:31:21;38.60;26.60
32640;DHT22;19049;52.524;11.468;2023-07-08T14:33:48;38.40;26.20
32640;DHT22;19049;52.524;11.468;2023-07-08T14:36:14;38.10;26.30
32640;DHT22;19049;52.524;11.468;2023-07-08T14:38:40;37.40;32.70
32640;DHT22;19049;52.524;11.468;2023-07-08T14:41:06;37.10;31.90
32640;DHT22;19049;52.524;11.468;2023-07-08T14:43:33;36.50;32.60
32640;DHT22;19049;52.524;11.468;2023-07-08T14:46:01;36.40;32.10
32640;DHT22;19049;52.524;11.468;2023-07-08T14:48:29;36.90;33.10
32640;DHT22;19049;52.524;11.468;2023-07-08T14:50:55;37.50;32.70
32640;DHT22;19049;52.524;11.468;2023-07-08T14:53:21;37.40;27.80
32640;DHT22;19049;52.524;11.468;2023-07-08T14:55:49;37.70;33.60
32640;DHT22;19049;52.524;11.468;2023-07-08T15:00:47;38.10;27.30
32640;DHT22;19049;52.524;11.468;2023-07-08T15:03:13;38.30;27.10
32640;DHT22;19049;52.524;11.468;2023-07-08T15:05:38;38.60;27.00
32640;DHT22;19049;52.524;11.468;2023-07-08T15:08:04;38.80;26.50
32640;DHT22;19049;52.524;11.468;2023-07-08T15:10:31;38.80;26.20
32640;DHT22;19049;52.524;11.468;2023-07-08T15:12:59;38.70;26.10
32640;DHT22;19049;52.524;11.468;2023-07-08T15:15:30;38.50;26.10
32640;DHT22;19049;52.524;11.468;2023-07-08T15:17:57;38.40;25.70
32640;DHT22;19049;52.524;11.468;2023-07-08T15:20:24;38.40;26.30
32640;DHT22;19049;52.524;11.468;2023-07-08T15:22:50;38.40;26.50
32640;DHT22;19049;52.524;11.468;2023-07-08T15:25:17;38.50;26.40
32640;DHT22;19049;52.524;11.468;2023-07-08T15:27:46;38.50;26.40
32640;DHT22;19049;52.524;11.468;2023-07-08T15:30:21;38.60;26.00
32640;DHT22;19049;52.524;11.468;2023-07-08T15:32:46;38.60;26.30
32640;DHT22;19049;52.524;11.468;2023-07-08T15:35:17;38.60;26.20
32640;DHT22;19049;52.524;11.468;2023-07-08T15:37:44;38.70;26.10
32640;DHT22;19049;52.524;11.468;2023-07-08T15:40:14;38.80;26.40
32640;DHT22;19049;52.524;11.468;2023-07-08T15:42:40;38.90;26.10
32640;DHT22;19049;52.524;11.468;2023-07-08T15:45:23;39.20;28.80
32640;DHT22;19049;52.524;11.468;2023-07-08T15:47:49;39.20;25.80
32640;DHT22;19049;52.524;11.468;2023-07-08T15:50:22;39.30;26.00
32640;DHT22;19049;52.524;11.468;2023-07-08T15:52:50;39.40;25.00
32640;DHT22;19049;52.524;11.468;2023-07-08T15:55:24;39.50;25.40
32640;DHT22;19049;52.524;11.468;2023-07-08T15:58:01;39.40;25.50
32640;DHT22;19049;52.524;11.468;2023-07-08T16:00:29;39.40;25.50
32640;DHT22;19049;52.524;11.468;2023-07-08T16:02:58;39.30;25.60
32640;DHT22;19049;52.524;11.468;2023-07-08T16:05:24;39.20;25.80
32640;DHT22;19049;52.524;11.468;2023-07-08T16:07:52;39.10;25.70
32640;DHT22;19049;52.524;11.468;2023-07-08T16:10:19;38.80;25.40
32640;DHT22;19049;52.524;11.468;2023-07-08T16:12:45;38.60;25.70
32640;DHT22;19049;52.524;11.468;2023-07-08T16:15:18;38.30;25.50
32640;DHT22;19049;52.524;11.468;2023-07-08T16:17:44;38.20;25.70
32640;DHT22;19049;52.524;11.468;2023-07-08T16:20:22;38.10;25.90
32640;DHT22;19049;52.524;11.468;2023-07-08T16:22:48;38.00;26.00
32640;DHT22;19049;52.524;11.468;2023-07-08T16:25:16;37.90;26.00
32640;DHT22;19049;52.524;11.468;2023-07-08T16:27:47;37.80;26.20
32640;DHT22;19049;52.524;11.468;2023-07-08T16:30:19;37.70;26.30
32640;DHT22;19049;52.524;11.468;2023-07-08T16:32:45;37.70;26.40
32640;DHT22;19049;52.524;11.468;2023-07-08T16:35:16;39.20;27.30
32640;DHT22;19049;52.524;11.468;2023-07-08T16:37:45;37.80;26.70
32640;DHT22;19049;52.524;11.468;2023-07-08T16:42:43;38.00;26.50
32640;DHT22;19049;52.524;11.468;2023-07-08T16:45:14;38.00;26.20
32640;DHT22;19049;52.524;11.468;2023-07-08T16:47:41;38.00;26.30
32640;DHT22;19049;52.524;11.468;2023-07-08T16:50:07;38.80;37.00
32640;DHT22;19049;52.524;11.468;2023-07-08T16:52:34;38.10;26.30
32640;DHT22;19049;52.524;11.468;2023-07-08T16:55:01;38.10;26.20
32640;DHT22;19049;52.524;11.468;2023-07-08T16:57:26;38.10;26.10
32640;DHT22;19049;52.524;11.468;2023-07-08T16:59:53;38.00;26.00
32640;DHT22;19049;52.524;11.468;2023-07-08T17:02:19;37.90;26.10
32640;DHT22;19049;52.524;11.468;2023-07-08T17:04:51;37.80;26.00
32640;DHT22;19049;52.524;11.468;2023-07-08T17:07:17;37.70;25.90
32640;DHT22;19049;52.524;11.468;2023-07-08T17:09:43;37.60;26.30
32640;DHT22;19049;52.524;11.468;2023-07-08T17:12:09;37.60;26.20
32640;DHT22;19049;52.524;11.468;2023-07-08T17:14:35;37.50;26.20
32640;DHT22;19049;52.524;11.468;2023-07-08T17:17:02;37.50;25.90
32640;DHT22;19049;52.524;11.468;2023-07-08T17:21:54;37.30;25.70
32640;DHT22;19049;52.524;11.468;2023-07-08T17:24:19;37.30;26.20
32640;DHT22;19049;52.524;11.468;2023-07-08T17:26:46;37.30;26.20
32640;DHT22;19049;52.524;11.468;2023-07-08T17:29:12;37.20;26.20
32640;DHT22;19049;52.524;11.468;2023-07-08T17:31:38;37.20;26.30
32640;DHT22;19049;52.524;11.468;2023-07-08T17:34:04;37.20;26.50
32640;DHT22;19049;52.524;11.468;2023-07-08T17:36:32;37.10;26.50
32640;DHT22;19049;52.524;11.468;2023-07-08T17:38:58;37.10;26.60
32640;DHT22;19049;52.524;11.468;2023-07-08T17:41:24;37.10;26.80
32640;DHT22;19049;52.524;11.468;2023-07-08T17:43:50;37.10;26.70
32640;DHT22;19049;52.524;11.468;2023-07-08T17:46:18;37.00;26.80
32640;DHT22;19049;52.524;11.468;2023-07-08T17:48:44;36.90;26.80
32640;DHT22;19049;52.524;11.468;2023-07-08T17:51:18;36.90;26.80
32640;DHT22;19049;52.524;11.468;2023-07-08T17:53:44;37.20;32.30
32640;DHT22;19049;52.524;11.468;2023-07-08T17:56:31;36.30;30.90
32640;DHT22;19049;52.524;11.468;2023-07-08T17:58:57;35.80;32.10
32640;DHT22;19049;52.524;11.468;2023-07-08T18:01:24;37.30;33.40
32640;DHT22;19049;52.524;11.468;2023-07-08T18:03:50;36.50;31.70
32640;DHT22;19049;52.524;11.468;2023-07-08T18:08:42;35.70;31.40
32640;DHT22;19049;52.524;11.468;2023-07-08T18:11:14;35.60;31.70
32640;DHT22;19049;52.524;11.468;2023-07-08T18:13:41;34.70;32.00